Startpagina
METAR-TAF:

METAR-TAF

Vliegvelden :

Big Piney / Marbleton, Wyoming, Verenigde Staten

breedte: 42-34-44N, lengte: 110-06-11W, hoogte: 2126 m

Actueel weer

Dit bericht is 1 uur en het 1 minuten geleden gemaakt, om 11:53 UTC
Weinig wind
Temperatuur -9°C
Vochtigheid 79%
Druk 1030 hPa
Zicht: 16.1 km
Onbewolkt

METAR: KBPI 161153Z AUTO 00000KT 10SM CLR M09/M12 A3041 RMK AO2 SLP306 T10941122 11044 21094 55001

Tijdstip: 06:54 (12:54 UTC)

Verwachting

Dit bericht is 1 uur en het 31 minuten geleden gemaakt, om 11:23 UTC
Verwachting geldig van 16 om 12 UTC tot 17 om 12 UTC
Wind 5 kt uit variabele richting
Zicht: 10 km
Onbewolkt
Van 16 om 2100 UTC
Wind 6 kt uit het zuiden
Zicht: 10 km
Onbewolkt
Van 17 om 0600 UTC
Wind 6 kt uit het noorden
Zicht: 10 km
Onbewolkt

TAF: KBPI 161123Z 1612/1712 VRB05KT P6SM SKC FM162100 18006KT P6SM SKC FM170600 35006KT P6SM SKC

Waarnemingen en weersverwachtingen van meer dan 4000 vliegvelden (METAR en TAF).

De beschikbare stations zijn de gele en rode punten op de kaart.

Ga met uw muis naar het station om de naam te zien.

Klik dan om waarnemingen en weersverwachtingen te zien.

kaart wijzigen: klik op de groene knoppen met een zwart kruis om in te zoomen, op de groene knop met een streepje om uit te zoomen of op de groene pijlen voor aangrenzende kaarten.


METAR-TAF: